Terminal Aerodrome Forecast
Issued by NWS Amarillo, TX

Home | Current Version | Previous Version | Text Only | Print | Product List | Glossary On
Versions: 1 2 3 4 5 6 7 8 9 10 11 12
000
FTUS44 KAMA 220540
TAFGUY
TAF
KGUY 220540Z 2206/2306 20009KT P6SM FEW200
     FM221400 23010KT P6SM SCT080
     FM222100 19008KT P6SM VCSH SCT080 BKN110 PROB30 2300/2306 -TSRA
      SCT080CB BKN110CB=

USA.gov is the U.S. government's official web portal to all federal, state and local government web resources and services.